Flight Track Log - Related Links

Times and Time Zones

All times are in EST time to prevent confusion due to time zone crossing. See the DAL3606 flight status page for this flight to view local times or setup timezone preferences in your user account.

Time Position Orientation Groundspeed Altitude Reporting Facility
EST Latitude Longitude Course Direction KTS MPH feet Rate Location/Type
Sat 03:19:32 PM 44.9333 -93.2567 69° East 191 220 4,100  Level Minneapolis Center
Sat 03:20:33 PM 44.9972 -93.2758 348° North 233 268 6,400 2,361 Climbing Minneapolis Center
Sat 03:21:34 PM 45.0450 -93.1919 51° Northeast 292 336 8,900 2,361 Climbing Minneapolis Center
Sat 03:22:35 PM 45.0853 -93.0547 67° East 313 360 11,200 2,311 Climbing Minneapolis Center
Sat 03:23:36 PM 45.1214 -92.9289 68° East 340 391 13,600 2,066 Climbing Minneapolis Center
Sat 03:24:00 PM 44.8718 -92.6047 69° East  Level Estimated
Sat 03:24:37 PM 45.1583 -92.8006 68° East 351 404 15,400  Level Minneapolis Center
Sat 03:25:38 PM 45.1964 -92.6650 68° East 367 422 17,000 829 Climbing Minneapolis Center
Sat 03:26:40 PM 45.2383 -92.5194 68° East 398 458 17,100  Climbing Minneapolis Center
Sat 03:27:41 PM 45.2831 -92.3625 68° East 427 491 17,000 -49 Descending Minneapolis Center
Sat 03:28:42 PM 45.2864 -92.1944 88° East 442 509 17,000  Level Minneapolis Center
Sat 03:29:43 PM 45.2536 -92.0239 105° East 446 513 17,000  Level Minneapolis Center
Sat 03:30:44 PM 45.2208 -91.8553 105° East 445 512 17,000  Level Minneapolis Center
Sat 03:31:45 PM 45.1875 -91.6867 106° East 444 511 17,000  Level Minneapolis Center
Sat 03:32:46 PM 45.1542 -91.5156 105° East 448 516 17,000  Level Minneapolis Center
Sat 03:33:47 PM 45.1214 -91.3450 105° East 449 517 17,000 -393 Level Minneapolis Center
Sat 03:34:48 PM 45.0858 -91.1708 106° East 447 514 16,200 -1,574 Descending Minneapolis Center
Sat 03:35:49 PM 45.0503 -90.9994 106° East 404 465 13,800 -1,918 Descending Minneapolis Center
Sat 03:36:50 PM 45.0275 -90.8794 105° East 387 445 12,300 -1,377 Descending Minneapolis Center
Sat 03:37:51 PM 44.9953 -90.7150 105° East 369 425 11,000 -1,268 Descending Minneapolis Center
Sat 03:38:53 PM 44.9700 -90.5889 106° East 336 387 9,700 -1,512 Descending Minneapolis Center
Sat 03:39:54 PM 44.9331 -90.4936 119° Southeast 301 346 7,900 -1,328 Descending Minneapolis Center
Sat 03:40:55 PM 44.8703 -90.4208 141° Southeast 281 323 7,000 -443 Descending Minneapolis Center
Sat 03:41:56 PM 44.8194 -90.3342 130° Southeast 282 325 7,000  Level Minneapolis Center
Sat 03:42:57 PM 44.7836 -90.2428 119° Southeast 280 322 7,000 -836 Level Minneapolis Center
Sat 03:43:58 PM 44.7425 -90.1469 121° Southeast 274 315 5,300 -1,475 Descending Minneapolis Center
Sat 03:44:59 PM 44.7200 -90.0481 108° East 259 298 4,000 -1,131 Descending Minneapolis Center
Sat 03:46:00 PM 44.7350 -89.9553 77° East 251 289 3,000 -492 Descending Minneapolis Center
Sat 03:47:01 PM 44.7497 -89.8647 77° East 233 268 3,000  Level Minneapolis Center
Sat 03:48:02 PM 44.7589 -89.8019 78° East 180 207 3,000 -344 Level Minneapolis Center
Sat 03:49:03 PM 44.7703 -89.7322 77° East 175 201 2,300 -443 Descending Minneapolis Center
Sat 03:50:04 PM 44.7797 -89.6756 77° East 171 197 2,100 -197 Descending Minneapolis Center

Login

Don't have an account? Register now (free) for customized features, flight alerts, and more!